Time;durP1;ratioP1;P1;durP2;ratioP2;P2;SDS_P1;SDS_P2;PMS_P1;PMS_P2;Temp;Humidity;BMP_temperature;BMP_pressure;BME280_temperature;BME280_humidity;BME280_pressure;Samples;Min_cycle;Max_cycle;Signal;HPM_P1;HPM_P2
2022/02/07 00:00:06;;;;;;;0.90;0.40;;;;;;;3.06;100.00;97785.78;5041480;27;104493;-74
2022/02/07 00:05:28;;;;;;;0.20;0.20;;;;;;;3.20;100.00;97793.66;5056360;27;103201;-74
2022/02/07 00:07:57;;;;;;;0.30;0.30;;;;;;;3.26;100.00;97783.69;5056554;27;102669;-73
2022/02/07 00:10:27;;;;;;;0.43;0.40;;;;;;;3.27;100.00;97763.66;5056221;27;103913;-73
2022/02/07 00:12:55;;;;;;;2.27;0.60;;;;;;;3.21;100.00;97774.44;5037542;27;103958;-73
2022/02/07 00:15:23;;;;;;;1.73;0.43;;;;;;;3.17;100.00;97752.91;5034681;27;103243;-73
2022/02/07 00:17:51;;;;;;;0.50;0.37;;;;;;;3.32;100.00;97753.78;5055280;27;104391;-73
2022/02/07 00:20:23;;;;;;;1.10;0.50;;;;;;;3.47;100.00;97786.84;5057922;27;103892;-73
2022/02/07 00:22:52;;;;;;;0.53;0.40;;;;;;;3.53;100.00;97791.72;5038765;27;104236;-73
2022/02/07 00:25:21;;;;;;;0.40;0.40;;;;;;;3.53;100.00;97828.28;5058888;27;103242;-66
2022/02/07 00:27:51;;;;;;;1.40;0.40;;;;;;;3.62;100.00;97837.34;5057513;27;102574;-66
2022/02/07 00:30:20;;;;;;;1.10;0.37;;;;;;;3.47;100.00;97818.19;5039793;27;102901;-66
2022/02/07 00:32:49;;;;;;;0.80;0.40;;;;;;;3.59;100.00;97812.25;5057049;27;103934;-67
2022/02/07 00:35:20;;;;;;;0.30;0.30;;;;;;;3.55;100.00;97797.69;5042809;27;103171;-67
2022/02/07 00:37:51;;;;;;;0.90;0.50;;;;;;;3.59;100.00;97801.81;5054232;27;102883;-73
2022/02/07 00:43:29;;;;;;;2.30;0.50;;;;;;;3.59;100.00;97809.66;5021578;27;104287;-73
2022/02/07 00:46:03;;;;;;;2.37;0.40;;;;;;;3.65;100.00;97814.50;5038709;27;104175;-73
2022/02/07 00:48:31;;;;;;;1.57;0.43;;;;;;;3.61;100.00;97805.16;5056530;27;102774;-73
2022/02/07 00:51:00;;;;;;;1.67;0.50;;;;;;;3.70;100.00;97802.03;5055428;27;102933;-67
2022/02/07 00:53:31;;;;;;;1.57;0.50;;;;;;;3.59;100.00;97775.69;5058535;27;103905;-66
2022/02/07 00:55:59;;;;;;;1.03;0.37;;;;;;;3.56;100.00;97802.00;5038295;27;104203;-66
2022/02/07 00:58:28;;;;;;;0.33;0.33;;;;;;;3.68;100.00;97822.16;5036287;27;102674;-67
2022/02/07 01:00:56;;;;;;;1.70;0.40;;;;;;;3.65;100.00;97838.00;5035877;27;102906;-66
2022/02/07 01:03:29;;;;;;;1.03;0.30;;;;;;;3.59;100.00;97842.75;5056616;27;103301;-66
2022/02/07 01:06:00;;;;;;;0.93;0.57;;;;;;;3.64;100.00;97848.56;5038163;27;105356;-71
2022/02/07 01:08:37;;;;;;;0.60;0.40;;;;;;;3.69;100.00;97842.13;5038239;27;102713;-72
2022/02/07 01:11:17;;;;;;;0.87;0.40;;;;;;;3.74;100.00;97853.16;5037043;27;102759;-66
2022/02/07 01:14:07;;;;;;;1.03;0.80;;;;;;;3.70;99.30;97854.28;5038792;27;105170;-67
2022/02/07 01:16:58;;;;;;;1.17;0.33;;;;;;;3.78;99.35;97859.88;5035703;27;103634;-66
2022/02/07 01:20:11;;;;;;;0.50;0.30;;;;;;;3.80;99.50;97883.31;5056806;27;102588;-66
2022/02/07 01:23:04;;;;;;;0.40;0.30;;;;;;;3.75;99.19;97896.66;5039371;27;102700;-72
2022/02/07 01:48:14;;;;;;;0.70;0.30;;;;;;;3.86;96.58;97962.19;5054653;27;103230;-70
2022/02/07 01:50:55;;;;;;;1.13;0.87;;;;;;;3.92;95.66;97972.31;5034114;27;103097;-72
2022/02/07 01:53:35;;;;;;;1.13;0.50;;;;;;;3.99;94.81;97998.91;5035624;27;102789;-71
2022/02/07 01:56:09;;;;;;;1.27;0.33;;;;;;;3.97;95.51;97996.41;5037358;27;103625;-71
2022/02/07 01:58:48;;;;;;;0.50;0.30;;;;;;;3.98;95.19;98008.53;5038825;27;104465;-71
2022/02/07 02:01:19;;;;;;;1.50;0.40;;;;;;;3.98;95.22;98024.22;5032360;27;104942;-71
2022/02/07 02:03:49;;;;;;;1.87;0.60;;;;;;;3.96;94.05;98036.50;5038379;27;103777;-71
2022/02/07 02:06:18;;;;;;;0.87;0.60;;;;;;;4.04;93.57;98051.78;5038885;27;102920;-66
2022/02/07 02:08:57;;;;;;;0.67;0.40;;;;;;;4.04;93.45;98060.44;5036585;27;103769;-67
2022/02/07 02:11:27;;;;;;;2.03;0.60;;;;;;;4.00;94.79;98066.78;5035860;27;102990;-72
2022/02/07 02:14:14;;;;;;;1.90;0.60;;;;;;;3.92;92.71;98082.06;5037085;27;102657;-66
2022/02/07 02:16:58;;;;;;;1.80;0.80;;;;;;;4.04;93.27;98080.53;5039495;27;103620;-67
2022/02/07 02:20:02;;;;;;;1.23;0.63;;;;;;;3.98;94.92;98097.41;5036899;27;105903;-67
2022/02/07 02:22:51;;;;;;;1.97;0.50;;;;;;;4.08;94.55;98102.94;5031397;27;105433;-66
2022/02/07 02:34:30;;;;;;;1.23;0.50;;;;;;;4.06;93.26;98092.59;5059258;27;103233;-67
2022/02/07 02:37:14;;;;;;;2.87;0.63;;;;;;;4.14;94.71;98105.22;5055261;27;102683;-66
2022/02/07 02:45:30;;;;;;;1.43;0.47;;;;;;;4.18;95.00;98145.13;5037129;27;104137;-66
2022/02/07 02:48:08;;;;;;;0.90;0.70;;;;;;;4.03;95.73;98167.72;5051191;27;102634;-67
2022/02/07 02:50:37;;;;;;;0.90;0.50;;;;;;;3.81;97.72;98196.78;5038043;27;102694;-67
2022/02/07 02:53:07;;;;;;;0.63;0.60;;;;;;;3.76;98.78;98185.72;5036706;27;103840;-67
2022/02/07 02:55:39;;;;;;;1.47;0.50;;;;;;;3.71;98.89;98182.50;5055472;27;102981;-73
2022/02/07 02:58:11;;;;;;;2.10;0.70;;;;;;;3.59;98.62;98177.94;5054330;27;102612;-73
2022/02/07 03:00:40;;;;;;;2.50;0.83;;;;;;;3.42;99.97;98193.63;5055231;27;102633;-73
2022/02/07 03:03:19;;;;;;;2.23;0.83;;;;;;;3.42;98.62;98196.25;5034000;27;104319;-73
2022/02/07 03:05:48;;;;;;;2.40;0.80;;;;;;;3.07;100.00;98216.31;5054885;27;103387;-68
2022/02/07 03:08:19;;;;;;;1.43;1.30;;;;;;;2.77;100.00;98244.75;5035550;27;102727;-67
2022/02/07 03:10:59;;;;;;;1.60;1.03;;;;;;;2.80;100.00;98239.38;5034955;27;102679;-67
2022/02/07 03:16:38;;;;;;;1.80;0.90;;;;;;;2.97;100.00;98245.53;5042194;27;103516;-67
2022/02/07 03:19:15;;;;;;;1.17;0.63;;;;;;;3.06;100.00;98250.31;5033319;27;102631;-67
2022/02/07 03:21:46;;;;;;;1.43;0.63;;;;;;;2.95;100.00;98250.00;5034146;27;103904;-66
2022/02/07 03:24:18;;;;;;;1.90;0.60;;;;;;;3.23;100.00;98242.50;5038221;27;103904;-66
2022/02/07 03:27:01;;;;;;;1.37;0.70;;;;;;;3.16;100.00;98241.09;5037367;27;105375;-66
2022/02/07 03:29:34;;;;;;;4.57;1.20;;;;;;;3.22;100.00;98264.28;5038274;27;102727;-66
2022/02/07 03:32:05;;;;;;;2.17;0.70;;;;;;;2.74;100.00;98351.84;5038627;27;102849;-67
2022/02/07 03:34:45;;;;;;;2.67;0.67;;;;;;;2.33;100.00;98385.00;5037043;27;103950;-70
2022/02/07 03:37:17;;;;;;;1.13;0.40;;;;;;;2.08;100.00;98392.19;5039792;27;104139;-70
2022/02/07 03:39:45;;;;;;;0.30;0.30;;;;;;;2.01;100.00;98392.53;5036748;27;103058;-65
2022/02/07 03:42:17;;;;;;;1.90;0.60;;;;;;;1.87;100.00;98394.88;5037445;27;103863;-65
2022/02/07 03:44:55;;;;;;;0.77;0.70;;;;;;;1.97;100.00;98391.81;5037178;27;104309;-66
2022/02/07 03:47:25;;;;;;;0.80;0.60;;;;;;;1.82;100.00;98423.75;5035794;27;104186;-69
2022/02/07 03:49:54;;;;;;;2.83;0.57;;;;;;;1.72;100.00;98433.69;5038404;27;102820;-65
2022/02/07 03:52:23;;;;;;;1.63;0.70;;;;;;;1.73;100.00;98448.41;5040722;27;104321;-65
2022/02/07 03:54:51;;;;;;;1.07;0.50;;;;;;;1.79;100.00;98454.28;5052489;27;104325;-65
2022/02/07 03:57:21;;;;;;;2.67;0.73;;;;;;;1.87;100.00;98462.63;5018611;27;104198;-71
2022/02/07 03:59:49;;;;;;;1.63;0.50;;;;;;;1.79;100.00;98459.47;5028872;27;102829;-65
2022/02/07 04:02:20;;;;;;;0.60;0.50;;;;;;;1.89;100.00;98445.16;5034788;27;102637;-65
2022/02/07 04:04:55;;;;;;;1.43;0.60;;;;;;;1.92;100.00;98460.66;5032920;27;104330;-66
2022/02/07 04:07:24;;;;;;;1.80;0.60;;;;;;;2.02;100.00;98477.63;5029159;27;104434;-65
2022/02/07 04:09:56;;;;;;;1.43;0.40;;;;;;;1.99;100.00;98480.34;5051652;27;103209;-65
2022/02/07 04:12:28;;;;;;;0.93;0.47;;;;;;;2.01;100.00;98499.38;5030985;27;103567;-70
2022/02/07 04:15:01;;;;;;;0.90;0.50;;;;;;;1.96;100.00;98501.31;4980440;27;103329;-70
2022/02/07 04:17:30;;;;;;;2.80;0.90;;;;;;;1.93;99.24;98498.84;4967136;28;105954;-70
2022/02/07 04:20:04;;;;;;;2.57;0.60;;;;;;;1.87;99.16;98515.56;4969155;28;102777;-70
2022/02/07 04:22:42;;;;;;;2.03;0.60;;;;;;;1.83;98.84;98520.94;4971903;28;102678;-70
2022/02/07 04:25:28;;;;;;;0.73;0.70;;;;;;;1.92;99.10;98520.59;4988462;28;104081;-70
2022/02/07 04:28:05;;;;;;;1.73;0.70;;;;;;;1.91;99.71;98530.16;4976302;28;106263;-70
2022/02/07 04:30:33;;;;;;;1.93;0.57;;;;;;;1.96;100.00;98546.47;4972993;28;102609;-70
2022/02/07 04:33:02;;;;;;;1.27;0.67;;;;;;;1.87;99.21;98552.03;4977414;28;103682;-71
2022/02/07 04:35:31;;;;;;;0.83;0.70;;;;;;;1.86;98.98;98565.13;4988007;28;103271;-71
2022/02/07 04:38:04;;;;;;;0.83;0.70;;;;;;;2.02;98.62;98572.25;4971911;28;103214;-70
2022/02/07 04:40:37;;;;;;;0.97;0.60;;;;;;;1.89;97.27;98578.88;4971079;28;102824;-70
2022/02/07 04:43:09;;;;;;;1.00;0.63;;;;;;;2.02;97.52;98600.91;4990824;28;104258;-71
2022/02/07 04:45:48;;;;;;;1.37;0.70;;;;;;;1.88;97.72;98610.22;4987647;28;104064;-70
2022/02/07 04:48:39;;;;;;;2.57;0.60;;;;;;;1.92;97.77;98622.19;4970857;28;103442;-60
2022/02/07 04:51:37;;;;;;;1.93;0.60;;;;;;;1.93;97.74;98634.31;4982857;28;102678;-70
2022/02/07 04:54:21;;;;;;;1.20;0.60;;;;;;;2.04;96.94;98626.94;4973789;28;104131;-69
2022/02/07 04:57:09;;;;;;;2.83;0.80;;;;;;;1.97;96.73;98636.75;4971684;28;105140;-70
2022/02/07 04:59:53;;;;;;;2.10;0.60;;;;;;;1.95;96.02;98637.72;4969013;28;103202;-69
2022/02/07 05:02:27;;;;;;;1.83;0.90;;;;;;;1.88;95.48;98641.47;4970522;28;102630;-70
2022/02/07 05:05:08;;;;;;;4.20;0.80;;;;;;;1.89;95.47;98649.22;4972977;28;104046;-70
2022/02/07 05:15:55;;;;;;;3.17;1.00;;;;;;;1.86;95.51;98693.63;4988254;28;102701;-72
2022/02/07 05:18:25;;;;;;;3.23;0.77;;;;;;;1.89;95.24;98700.47;4989308;28;103274;-72
2022/02/07 05:21:13;;;;;;;3.20;1.27;;;;;;;1.86;93.73;98706.66;4990315;28;103208;-73
2022/02/07 05:23:50;;;;;;;4.07;1.17;;;;;;;1.94;93.60;98711.59;4971858;28;102642;-73
2022/02/07 05:26:44;;;;;;;3.70;1.20;;;;;;;1.94;93.96;98716.81;4965062;28;102757;-73
2022/02/07 05:29:30;;;;;;;3.17;1.00;;;;;;;1.95;93.63;98731.50;4986409;28;103908;-73
2022/02/07 05:32:10;;;;;;;5.27;1.00;;;;;;;2.01;94.64;98746.94;4962910;28;103208;-73
2022/02/07 05:35:02;;;;;;;5.87;1.00;;;;;;;2.03;93.46;98752.91;4970293;28;103631;-73
2022/02/07 05:37:49;;;;;;;3.60;1.10;;;;;;;2.09;93.82;98756.16;4999183;28;102603;-73
2022/02/07 05:40:30;;;;;;;3.17;1.10;;;;;;;2.10;93.54;98767.44;4993502;28;103276;-73
2022/02/07 05:43:14;;;;;;;4.13;1.07;;;;;;;2.08;93.51;98790.09;4983448;28;105210;-73
2022/02/07 05:45:58;;;;;;;3.13;0.83;;;;;;;2.13;93.20;98794.22;4997363;28;102689;-73
2022/02/07 05:48:39;;;;;;;3.33;0.80;;;;;;;2.12;93.32;98792.53;5003384;28;102563;-72
2022/02/07 05:51:22;;;;;;;4.40;1.33;;;;;;;2.13;93.35;98793.41;4985283;28;103183;-73
2022/02/07 05:54:13;;;;;;;4.90;1.10;;;;;;;2.15;92.68;98796.78;5003521;28;103180;-73
2022/02/07 05:57:01;;;;;;;2.90;1.00;;;;;;;2.18;93.03;98802.75;4993424;28;102921;-74
2022/02/07 05:59:48;;;;;;;3.50;1.10;;;;;;;2.21;93.11;98805.25;5003012;28;102794;-73
2022/02/07 06:02:38;;;;;;;2.70;0.90;;;;;;;2.20;92.82;98805.28;5003958;28;103367;-73
2022/02/07 06:05:20;;;;;;;2.67;0.97;;;;;;;2.17;92.22;98813.22;4981740;28;103418;-74
2022/02/07 06:07:53;;;;;;;3.47;1.00;;;;;;;2.22;93.31;98816.50;5002905;28;102766;-75
2022/02/07 06:10:21;;;;;;;2.27;0.70;;;;;;;2.25;92.62;98840.69;4985159;28;102796;-73
2022/02/07 06:12:51;;;;;;;3.23;1.00;;;;;;;2.26;92.95;98841.56;4983312;28;103551;-70
2022/02/07 06:15:19;;;;;;;3.83;1.00;;;;;;;2.26;93.00;98841.56;4978671;28;105960;-74
2022/02/07 06:17:51;;;;;;;3.40;0.93;;;;;;;2.33;92.83;98848.22;4989118;28;102744;-74
2022/02/07 06:20:21;;;;;;;1.07;0.60;;;;;;;2.31;92.71;98847.44;4993230;28;103724;-74
2022/02/07 06:22:51;;;;;;;4.07;1.20;;;;;;;2.38;92.56;98858.50;4987881;28;104356;-74
2022/02/07 06:25:19;;;;;;;4.03;1.07;;;;;;;2.39;92.35;98853.22;4982098;28;103215;-73
2022/02/07 06:27:51;;;;;;;7.77;1.63;;;;;;;2.38;92.01;98863.72;4983220;28;102889;-73
2022/02/07 06:30:27;;;;;;;3.60;1.33;;;;;;;2.46;91.94;98875.56;4979401;28;102923;-74
2022/02/07 06:32:55;;;;;;;5.40;1.53;;;;;;;2.36;93.10;98884.63;4981882;28;103347;-73
2022/02/07 06:35:26;;;;;;;3.33;0.90;;;;;;;2.43;92.21;98886.13;4978699;28;103417;-74
2022/02/07 06:37:55;;;;;;;3.43;1.17;;;;;;;2.45;92.33;98893.88;4987101;28;102733;-74
2022/02/07 06:40:25;;;;;;;4.80;1.30;;;;;;;2.39;92.21;98897.56;4983025;28;103965;-73
2022/02/07 06:42:54;;;;;;;5.70;1.57;;;;;;;2.48;92.39;98893.75;4978509;28;104132;-69
2022/02/07 06:45:22;;;;;;;3.47;1.00;;;;;;;2.34;92.26;98908.16;4996035;28;103294;-70
2022/02/07 06:47:52;;;;;;;5.23;1.33;;;;;;;2.38;91.12;98903.69;4988509;28;102738;-70
2022/02/07 06:50:21;;;;;;;3.03;1.10;;;;;;;2.42;91.46;98931.34;4978336;28;102900;-69
2022/02/07 06:52:53;;;;;;;3.63;1.10;;;;;;;2.38;92.35;98931.53;4985852;28;105089;-70
2022/02/07 06:55:21;;;;;;;3.60;1.20;;;;;;;2.38;93.04;98942.81;4979592;28;104219;-70
2022/02/07 06:57:49;;;;;;;6.00;1.70;;;;;;;2.41;92.72;98950.53;5004674;28;102779;-70
2022/02/07 07:00:20;;;;;;;6.87;1.20;;;;;;;2.44;93.37;98955.63;4981245;28;104152;-70
2022/02/07 07:02:52;;;;;;;2.63;1.50;;;;;;;2.49;93.35;98968.50;4979199;28;105124;-70
2022/02/07 07:05:23;;;;;;;3.93;1.33;;;;;;;2.50;93.00;98978.03;4980534;28;103390;-70
2022/02/07 07:07:57;;;;;;;4.37;1.30;;;;;;;2.49;92.35;98979.78;4985786;28;102711;-71
2022/02/07 07:10:26;;;;;;;3.07;1.20;;;;;;;2.52;91.69;98995.34;4981482;28;104125;-70
2022/02/07 07:13:07;;;;;;;4.07;1.10;;;;;;;2.52;91.92;99000.53;4987167;28;106312;-70
2022/02/07 07:15:41;;;;;;;4.53;1.20;;;;;;;2.51;91.23;99001.44;4981556;28;105896;-70
2022/02/07 07:18:10;;;;;;;6.90;1.77;;;;;;;2.52;91.59;99008.38;4999760;28;103138;-70
2022/02/07 07:20:41;;;;;;;5.30;1.30;;;;;;;2.53;90.80;99010.06;5002768;28;102740;-70
2022/02/07 07:23:13;;;;;;;5.30;1.63;;;;;;;2.48;90.70;99008.50;5004930;28;103273;-70
2022/02/07 07:25:46;;;;;;;4.53;1.10;;;;;;;2.55;90.45;99007.41;4987471;28;105530;-70
2022/02/07 07:28:17;;;;;;;6.47;1.67;;;;;;;2.52;90.10;99021.41;4983429;28;102947;-70
2022/02/07 07:30:53;;;;;;;3.83;1.23;;;;;;;2.67;90.71;99025.22;4984212;28;103929;-70
2022/02/07 07:33:27;;;;;;;3.50;1.93;;;;;;;2.57;90.50;99029.94;4983137;28;102955;-70
2022/02/07 07:35:59;;;;;;;5.77;1.40;;;;;;;2.69;90.88;99042.56;4986555;28;103235;-70
2022/02/07 07:38:29;;;;;;;3.43;1.60;;;;;;;2.58;91.42;99042.06;4990413;28;102868;-70
2022/02/07 07:40:58;;;;;;;3.77;1.37;;;;;;;2.47;91.81;99038.97;4987052;28;103917;-70
2022/02/07 07:43:46;;;;;;;6.37;1.50;;;;;;;2.61;90.67;99041.94;4987265;28;103297;-70
2022/02/07 07:46:27;;;;;;;2.80;1.13;;;;;;;2.68;90.86;99043.44;5002842;28;103020;-70
2022/02/07 07:49:18;;;;;;;2.33;1.20;;;;;;;2.56;91.38;99041.25;5005447;28;103070;-70
2022/02/07 07:52:31;;;;;;;5.93;1.33;;;;;;;2.92;89.20;99049.53;4987495;28;102831;-70
2022/02/07 08:01:13;;;;;;;6.33;1.50;;;;;;;3.35;87.49;99051.41;5001782;28;104035;-70
2022/02/07 08:03:50;;;;;;;6.43;1.87;;;;;;;3.34;86.45;99086.31;4985213;28;104283;-70
2022/02/07 08:06:25;;;;;;;5.07;1.43;;;;;;;3.57;86.82;99080.19;4982708;28;105381;-71
2022/02/07 08:11:43;;;;;;;4.07;1.53;;;;;;;3.27;86.35;99079.59;4985146;28;102705;-70
2022/02/07 08:14:11;;;;;;;5.57;1.70;;;;;;;3.28;87.35;99097.81;4991141;28;103874;-70
2022/02/07 08:16:39;;;;;;;4.60;1.30;;;;;;;3.26;86.37;99101.38;4983938;28;104295;-70
2022/02/07 08:19:08;;;;;;;3.87;1.37;;;;;;;3.19;86.01;99107.75;5004633;28;103252;-70
2022/02/07 08:21:37;;;;;;;5.97;1.50;;;;;;;3.36;86.90;99106.22;5003076;28;102942;-70
2022/02/07 08:24:07;;;;;;;4.20;1.10;;;;;;;3.82;85.08;99123.63;5002301;28;102645;-70
2022/02/07 08:26:35;;;;;;;6.47;1.67;;;;;;;3.92;82.85;99116.28;5003869;28;103881;-70
2022/02/07 08:29:08;;;;;;;3.80;1.70;;;;;;;4.10;82.65;99132.09;5003526;28;103312;-70
2022/02/07 08:31:36;;;;;;;8.10;1.53;;;;;;;4.24;82.35;99141.19;5009374;28;103199;-70
2022/02/07 08:34:04;;;;;;;5.33;1.30;;;;;;;4.04;81.75;99140.19;5004654;28;103678;-70
2022/02/07 08:36:32;;;;;;;4.47;1.70;;;;;;;3.77;83.91;99156.06;4986729;28;104210;-70
2022/02/07 08:39:05;;;;;;;3.77;1.57;;;;;;;3.68;82.85;99152.03;5004302;28;103072;-73
2022/02/07 08:41:33;;;;;;;2.60;1.30;;;;;;;3.54;84.04;99162.16;5004764;28;102647;-73
2022/02/07 08:44:01;;;;;;;4.17;1.33;;;;;;;3.50;84.74;99181.47;4998649;28;103530;-73
2022/02/07 08:46:31;;;;;;;5.63;2.00;;;;;;;3.51;83.84;99177.94;5001441;28;103379;-73
2022/02/07 08:49:05;;;;;;;4.00;1.10;;;;;;;4.08;82.29;99191.44;4988863;28;103325;-73
2022/02/07 08:51:34;;;;;;;7.70;1.73;;;;;;;3.88;82.26;99208.78;5004222;28;102714;-74
2022/02/07 08:54:04;;;;;;;6.07;1.50;;;;;;;4.09;83.34;99202.78;5005065;28;103732;-74
2022/02/07 08:56:42;;;;;;;7.67;1.33;;;;;;;4.10;82.71;99212.31;5000044;28;103638;-73
2022/02/07 08:59:12;;;;;;;5.73;1.53;;;;;;;3.93;82.34;99212.94;5003083;28;103197;-73
2022/02/07 09:01:48;;;;;;;3.00;1.40;;;;;;;3.96;83.02;99209.34;5002669;28;102798;-74
2022/02/07 09:07:06;;;;;;;4.53;1.50;;;;;;;3.98;82.83;99228.47;4993769;28;103851;-74
2022/02/07 09:09:36;;;;;;;3.97;1.50;;;;;;;4.04;83.61;99236.91;4982026;28;103248;-74
2022/02/07 09:12:05;;;;;;;4.60;1.30;;;;;;;3.89;82.26;99237.50;4985201;28;102863;-75
2022/02/07 09:14:42;;;;;;;5.43;1.30;;;;;;;3.98;82.61;99242.41;4981099;28;102716;-75
2022/02/07 09:17:12;;;;;;;3.93;1.60;;;;;;;4.04;82.71;99250.00;5003702;28;104094;-72
2022/02/07 09:19:40;;;;;;;4.43;1.60;;;;;;;4.10;83.15;99243.69;5001412;28;103197;-72
2022/02/07 09:22:08;;;;;;;4.37;1.60;;;;;;;3.97;82.06;99253.75;5002429;28;102650;-72
2022/02/07 09:24:36;;;;;;;4.67;1.30;;;;;;;3.97;82.38;99261.59;4987535;28;103673;-72
2022/02/07 09:27:04;;;;;;;3.03;1.23;;;;;;;4.06;82.21;99266.50;5003118;28;103357;-72
2022/02/07 09:29:35;;;;;;;3.97;1.70;;;;;;;3.98;82.12;99268.56;4987078;28;104166;-71
2022/02/07 09:32:03;;;;;;;5.50;1.87;;;;;;;4.04;81.65;99273.53;5007827;28;102658;-72
2022/02/07 09:34:34;;;;;;;6.30;1.40;;;;;;;4.28;80.99;99266.53;5001617;28;103570;-72
2022/02/07 09:37:04;;;;;;;4.60;1.57;;;;;;;4.31;80.42;99278.66;5004270;28;104108;-72
2022/02/07 09:39:32;;;;;;;5.77;1.80;;;;;;;4.26;80.55;99277.97;4987841;28;104198;-73
2022/02/07 09:42:04;;;;;;;4.37;1.40;;;;;;;4.26;79.80;99280.59;5003418;28;102606;-71
2022/02/07 09:44:42;;;;;;;5.27;1.53;;;;;;;4.28;79.01;99278.75;5003886;28;103895;-71
2022/02/07 09:47:11;;;;;;;3.33;1.40;;;;;;;4.40;80.54;99283.53;4994920;28;103297;-71
2022/02/07 09:49:41;;;;;;;4.90;1.50;;;;;;;4.52;80.85;99290.94;5002293;28;103413;-71
2022/02/07 09:52:10;;;;;;;5.93;1.60;;;;;;;4.44;79.51;99298.19;4984630;28;103959;-71
2022/02/07 09:54:39;;;;;;;6.37;1.57;;;;;;;4.46;79.67;99317.31;5002000;28;103018;-70
2022/02/07 09:57:08;;;;;;;5.60;1.87;;;;;;;4.50;78.96;99314.53;5001600;28;103011;-71
2022/02/07 09:59:37;;;;;;;7.20;2.07;;;;;;;4.49;78.24;99328.50;4996278;28;103259;-71
2022/02/07 10:02:21;;;;;;;4.00;1.47;;;;;;;4.64;77.78;99327.06;4985326;28;103285;-71
2022/02/07 10:04:55;;;;;;;2.67;1.43;;;;;;;4.86;78.25;99325.31;4985091;28;102777;-71
2022/02/07 10:07:33;;;;;;;7.13;1.83;;;;;;;5.20;76.35;99332.69;5009757;28;103986;-71
2022/02/07 10:10:20;;;;;;;6.27;1.80;;;;;;;5.08;77.33;99335.81;5001844;28;102980;-70
2022/02/07 10:13:09;;;;;;;5.07;1.47;;;;;;;5.16;75.77;99331.97;5003855;28;103155;-70
2022/02/07 10:15:48;;;;;;;6.40;1.80;;;;;;;5.42;76.55;99332.69;4981622;28;103530;-70
2022/02/07 10:18:22;;;;;;;5.40;1.63;;;;;;;5.06;75.95;99341.09;4979193;28;103806;-70
2022/02/07 10:38:07;;;;;;;6.83;1.80;;;;;;;5.71;74.53;99388.19;5063759;27;103705;-75
2022/02/07 10:40:41;;;;;;;5.97;1.57;;;;;;;5.84;74.25;99393.78;5059927;27;104157;-75
2022/02/07 10:43:44;;;;;;;7.07;2.10;;;;;;;5.73;74.04;99396.84;5080975;27;103169;-74
2022/02/07 10:46:17;;;;;;;6.20;1.53;;;;;;;5.85;73.49;99395.53;5080683;27;102596;-70
2022/02/07 10:48:48;;;;;;;7.33;1.97;;;;;;;6.29;73.30;99397.06;5081144;27;102719;-70
2022/02/07 10:51:18;;;;;;;5.23;1.73;;;;;;;6.10;73.90;99395.31;5080520;27;103164;-70
2022/02/07 10:53:49;;;;;;;4.90;1.63;;;;;;;6.22;73.09;99395.66;5082364;27;103039;-70
2022/02/07 10:56:21;;;;;;;4.83;1.50;;;;;;;6.22;72.15;99400.91;5082078;27;102565;-71
2022/02/07 10:58:52;;;;;;;7.17;1.70;;;;;;;6.40;71.38;99410.56;5082603;27;103731;-70
2022/02/07 11:01:34;;;;;;;8.70;1.87;;;;;;;6.13;70.29;99424.91;5079821;27;103644;-70
2022/02/07 11:04:09;;;;;;;5.07;1.70;;;;;;;6.21;71.83;99440.31;5080974;27;103212;-70
2022/02/07 11:06:38;;;;;;;5.43;1.50;;;;;;;6.03;72.33;99441.97;5062421;27;102718;-71
2022/02/07 11:09:15;;;;;;;4.43;2.23;;;;;;;6.13;72.17;99453.75;5078737;27;104017;-70
2022/02/07 11:12:07;;;;;;;7.00;1.80;;;;;;;6.06;70.47;99465.44;5067619;27;103339;-70
2022/02/07 11:20:34;;;;;;;6.20;1.40;;;;;;;5.64;71.45;99481.13;5071665;27;102676;-73
2022/02/07 11:23:20;;;;;;;4.83;1.33;;;;;;;5.60;70.68;99494.41;5080241;27;103282;-73
2022/02/07 11:25:54;;;;;;;9.03;1.63;;;;;;;5.53;71.29;99498.22;5061582;27;103201;-73
2022/02/07 11:28:25;;;;;;;4.90;1.63;;;;;;;5.64;71.27;99511.75;5078757;27;102570;-73
2022/02/07 11:30:56;;;;;;;5.07;1.27;;;;;;;5.57;70.83;99521.63;5076635;27;104400;-75
2022/02/07 11:33:33;;;;;;;6.43;1.30;;;;;;;5.53;70.80;99525.25;5050683;27;104426;-77
2022/02/07 11:36:03;;;;;;;4.23;1.57;;;;;;;5.57;72.32;99518.13;5063193;27;103187;-77
2022/02/07 11:38:32;;;;;;;3.40;1.13;;;;;;;5.62;72.29;99516.19;5065961;27;102638;-77
2022/02/07 11:41:03;;;;;;;4.43;1.63;;;;;;;5.55;71.97;99526.06;5061437;27;103093;-77
2022/02/07 11:43:34;;;;;;;4.07;1.30;;;;;;;5.40;72.05;99533.66;5063974;27;104219;-77
2022/02/07 11:46:05;;;;;;;3.57;1.10;;;;;;;5.40;70.72;99549.38;5059355;27;103356;-77
2022/02/07 11:48:36;;;;;;;3.30;1.40;;;;;;;5.55;71.03;99556.66;5082214;27;102539;-76
2022/02/07 11:51:11;;;;;;;7.10;2.30;;;;;;;5.33;71.62;99558.41;5067266;27;103910;-75
2022/02/07 11:53:45;;;;;;;10.13;1.90;;;;;;;5.29;72.26;99565.50;5065632;27;103210;-74
2022/02/07 11:56:22;;;;;;;5.97;1.60;;;;;;;5.25;72.11;99572.63;5066385;27;102512;-75
2022/02/07 11:59:13;;;;;;;6.10;1.50;;;;;;;5.39;72.33;99579.13;5066447;27;102633;-74
2022/02/07 12:02:09;;;;;;;3.63;1.43;;;;;;;5.37;72.08;99594.03;5065605;27;103685;-76
2022/02/07 12:04:41;;;;;;;2.57;1.10;;;;;;;5.49;72.29;99589.22;5062309;27;103241;-76
2022/02/07 12:07:19;;;;;;;6.07;1.80;;;;;;;5.44;72.15;99598.16;5067176;27;103208;-76
2022/02/07 12:10:14;;;;;;;6.23;1.83;;;;;;;5.39;72.09;99598.31;5063608;27;102635;-74
2022/02/07 12:12:47;;;;;;;7.13;1.77;;;;;;;5.31;72.47;99592.50;5065233;27;104135;-76
2022/02/07 12:15:23;;;;;;;3.30;1.43;;;;;;;5.36;71.63;99595.81;5065478;27;103294;-74
2022/02/07 12:17:54;;;;;;;6.30;1.50;;;;;;;5.55;72.65;99596.00;5064975;27;103248;-74
2022/02/07 12:20:24;;;;;;;6.40;1.67;;;;;;;5.41;71.95;99596.50;5061675;27;102715;-76
2022/02/07 12:22:54;;;;;;;5.47;1.50;;;;;;;5.56;73.32;99593.28;5066712;27;103525;-76
2022/02/07 12:25:44;;;;;;;8.13;1.63;;;;;;;5.57;73.07;99595.00;5039883;27;103944;-76
2022/02/07 12:28:17;;;;;;;6.03;1.40;;;;;;;5.63;72.37;99604.41;5066449;27;103304;-75
2022/02/07 12:31:00;;;;;;;4.07;1.40;;;;;;;5.60;71.56;99609.78;5046443;27;102832;-75
2022/02/07 12:33:30;;;;;;;5.00;1.60;;;;;;;5.59;72.84;99615.91;5046402;27;103127;-75
2022/02/07 12:36:01;;;;;;;5.50;1.63;;;;;;;5.70;72.24;99611.13;5045722;27;104302;-73
2022/02/07 12:38:33;;;;;;;5.20;1.60;;;;;;;5.63;71.99;99614.91;5065531;27;103159;-73
2022/02/07 12:41:03;;;;;;;5.07;1.57;;;;;;;5.56;71.76;99623.88;5045447;27;102713;-73
2022/02/07 12:43:34;;;;;;;4.70;1.70;;;;;;;5.74;70.90;99625.81;5064337;27;102736;-73
2022/02/07 12:46:06;;;;;;;5.20;1.60;;;;;;;5.77;71.70;99625.72;5064780;27;103217;-73
2022/02/07 12:48:39;;;;;;;3.37;1.40;;;;;;;5.75;71.90;99631.00;5066160;27;104782;-72
2022/02/07 12:51:42;;;;;;;6.27;1.50;;;;;;;5.72;71.69;99625.03;5066265;27;102600;-73
2022/02/07 12:54:11;;;;;;;6.63;1.43;;;;;;;5.69;71.51;99626.03;5060292;27;102649;-76
2022/02/07 12:56:39;;;;;;;5.53;1.60;;;;;;;5.87;71.20;99642.00;5065402;27;103713;-77
2022/02/07 12:59:08;;;;;;;5.73;1.60;;;;;;;5.65;71.25;99631.41;5063104;27;103363;-72
2022/02/07 13:01:41;;;;;;;3.77;1.73;;;;;;;5.70;72.52;99634.72;5064744;27;102574;-72
2022/02/07 13:04:17;;;;;;;3.17;1.27;;;;;;;5.81;71.96;99636.00;5065523;27;104150;-72
2022/02/07 13:06:46;;;;;;;8.00;1.50;;;;;;;5.84;70.97;99635.03;5061906;27;103214;-73
2022/02/07 13:09:24;;;;;;;4.27;1.73;;;;;;;5.71;71.21;99641.69;5053880;27;103260;-76
2022/02/07 13:12:02;;;;;;;9.40;2.30;;;;;;;5.60;72.06;99636.84;5038160;27;102702;-76
2022/02/07 13:14:32;;;;;;;8.23;2.30;;;;;;;5.73;72.76;99637.22;5056036;27;104078;-76
2022/02/07 13:17:02;;;;;;;12.50;1.97;;;;;;;5.71;73.19;99645.16;5038494;27;103223;-76
2022/02/07 13:19:36;;;;;;;8.07;2.20;;;;;;;5.58;73.48;99637.81;5050315;27;103180;-76
2022/02/07 13:22:06;;;;;;;6.33;1.67;;;;;;;5.85;73.89;99642.03;5058731;27;102644;-72
2022/02/07 13:24:36;;;;;;;8.07;2.30;;;;;;;5.62;73.31;99640.25;5057234;27;103967;-73
2022/02/07 13:27:07;;;;;;;7.17;1.90;;;;;;;5.57;73.12;99657.06;5055090;27;103231;-73
2022/02/07 13:29:41;;;;;;;7.30;2.13;;;;;;;5.53;73.85;99651.06;5034631;27;103238;-73
2022/02/07 13:32:13;;;;;;;4.73;1.80;;;;;;;5.51;73.60;99657.28;5053881;27;102798;-73
2022/02/07 13:34:45;;;;;;;8.53;2.63;;;;;;;5.50;75.06;99655.59;5056080;27;102708;-73